sensor_id;sensor_type;location;lat;lon;timestamp;temperature;humidity
2611;DHT22;5612;51.134;17.058;2023-05-07T00:00:06;10.20;1.00
2611;DHT22;5612;51.134;17.058;2023-05-07T00:02:36;10.30;1.00
2611;DHT22;5612;51.134;17.058;2023-05-07T00:05:06;10.20;1.00
2611;DHT22;5612;51.134;17.058;2023-05-07T00:07:37;10.20;1.00
2611;DHT22;5612;51.134;17.058;2023-05-07T00:10:07;10.10;1.00
2611;DHT22;5612;51.134;17.058;2023-05-07T00:12:36;10.10;1.00
2611;DHT22;5612;51.134;17.058;2023-05-07T00:15:06;10.10;1.00
2611;DHT22;5612;51.134;17.058;2023-05-07T00:17:36;10.30;1.00
2611;DHT22;5612;51.134;17.058;2023-05-07T00:20:05;10.30;1.00
2611;DHT22;5612;51.134;17.058;2023-05-07T00:22:34;10.10;1.00
2611;DHT22;5612;51.134;17.058;2023-05-07T00:25:05;10.10;1.00
2611;DHT22;5612;51.134;17.058;2023-05-07T00:27:34;10.00;1.00
2611;DHT22;5612;51.134;17.058;2023-05-07T00:30:03;10.00;1.00
2611;DHT22;5612;51.134;17.058;2023-05-07T00:32:32;10.10;1.00
2611;DHT22;5612;51.134;17.058;2023-05-07T00:35:01;10.10;1.00
2611;DHT22;5612;51.134;17.058;2023-05-07T00:37:29;10.10;1.00
2611;DHT22;5612;51.134;17.058;2023-05-07T00:39:59;10.20;1.00
2611;DHT22;5612;51.134;17.058;2023-05-07T00:42:29;10.20;1.00
2611;DHT22;5612;51.134;17.058;2023-05-07T00:44:59;10.20;1.00
2611;DHT22;5612;51.134;17.058;2023-05-07T00:47:28;10.20;1.00
2611;DHT22;5612;51.134;17.058;2023-05-07T00:49:57;10.20;1.00
2611;DHT22;5612;51.134;17.058;2023-05-07T00:52:26;10.20;1.00
2611;DHT22;5612;51.134;17.058;2023-05-07T00:54:56;10.30;1.00
2611;DHT22;5612;51.134;17.058;2023-05-07T00:57:24;10.30;1.00
2611;DHT22;5612;51.134;17.058;2023-05-07T00:59:55;10.30;1.00
2611;DHT22;5612;51.134;17.058;2023-05-07T01:02:24;10.20;1.00
2611;DHT22;5612;51.134;17.058;2023-05-07T01:04:55;10.10;1.00
2611;DHT22;5612;51.134;17.058;2023-05-07T01:07:25;10.20;1.00
2611;DHT22;5612;51.134;17.058;2023-05-07T01:09:55;10.10;1.00
2611;DHT22;5612;51.134;17.058;2023-05-07T01:12:24;10.10;1.00
2611;DHT22;5612;51.134;17.058;2023-05-07T01:14:56;10.10;1.00
2611;DHT22;5612;51.134;17.058;2023-05-07T01:17:25;9.90;1.00
2611;DHT22;5612;51.134;17.058;2023-05-07T01:19:54;9.90;1.00
2611;DHT22;5612;51.134;17.058;2023-05-07T01:22:29;9.90;1.00
2611;DHT22;5612;51.134;17.058;2023-05-07T01:24:59;9.90;1.00
2611;DHT22;5612;51.134;17.058;2023-05-07T01:27:28;9.80;1.00
2611;DHT22;5612;51.134;17.058;2023-05-07T01:29:57;9.90;1.00
2611;DHT22;5612;51.134;17.058;2023-05-07T01:32:31;10.00;1.00
2611;DHT22;5612;51.134;17.058;2023-05-07T01:35:01;10.00;1.00
2611;DHT22;5612;51.134;17.058;2023-05-07T01:37:33;10.10;1.00
2611;DHT22;5612;51.134;17.058;2023-05-07T01:40:02;10.20;1.00
2611;DHT22;5612;51.134;17.058;2023-05-07T01:42:33;10.00;1.00
2611;DHT22;5612;51.134;17.058;2023-05-07T01:45:02;9.90;1.00
2611;DHT22;5612;51.134;17.058;2023-05-07T01:47:31;9.90;1.00
2611;DHT22;5612;51.134;17.058;2023-05-07T01:50:00;9.80;1.00
2611;DHT22;5612;51.134;17.058;2023-05-07T01:52:29;9.80;1.00
2611;DHT22;5612;51.134;17.058;2023-05-07T01:54:59;9.80;1.00
2611;DHT22;5612;51.134;17.058;2023-05-07T01:57:28;9.70;1.00
2611;DHT22;5612;51.134;17.058;2023-05-07T01:59:57;9.70;1.00
2611;DHT22;5612;51.134;17.058;2023-05-07T02:02:26;9.70;1.00
2611;DHT22;5612;51.134;17.058;2023-05-07T02:04:55;9.60;1.00
2611;DHT22;5612;51.134;17.058;2023-05-07T02:07:24;9.60;1.00
2611;DHT22;5612;51.134;17.058;2023-05-07T02:09:53;9.60;1.00
2611;DHT22;5612;51.134;17.058;2023-05-07T02:12:24;9.60;1.00
2611;DHT22;5612;51.134;17.058;2023-05-07T02:14:52;9.70;1.00
2611;DHT22;5612;51.134;17.058;2023-05-07T02:17:21;9.60;1.00
2611;DHT22;5612;51.134;17.058;2023-05-07T02:19:49;9.50;1.00
2611;DHT22;5612;51.134;17.058;2023-05-07T02:22:18;9.60;1.00
2611;DHT22;5612;51.134;17.058;2023-05-07T02:24:47;9.70;1.00
2611;DHT22;5612;51.134;17.058;2023-05-07T02:27:16;9.60;1.00
2611;DHT22;5612;51.134;17.058;2023-05-07T02:29:46;9.60;1.00
2611;DHT22;5612;51.134;17.058;2023-05-07T02:32:15;9.70;1.00
2611;DHT22;5612;51.134;17.058;2023-05-07T02:34:43;9.50;1.00
2611;DHT22;5612;51.134;17.058;2023-05-07T02:37:12;9.50;1.00
2611;DHT22;5612;51.134;17.058;2023-05-07T02:39:41;9.70;1.00
2611;DHT22;5612;51.134;17.058;2023-05-07T02:42:09;9.70;1.00
2611;DHT22;5612;51.134;17.058;2023-05-07T02:44:38;9.80;1.00
2611;DHT22;5612;51.134;17.058;2023-05-07T02:47:08;9.80;1.00
2611;DHT22;5612;51.134;17.058;2023-05-07T02:49:37;9.70;1.00
2611;DHT22;5612;51.134;17.058;2023-05-07T02:52:06;9.80;1.00
2611;DHT22;5612;51.134;17.058;2023-05-07T02:54:35;9.80;1.00
2611;DHT22;5612;51.134;17.058;2023-05-07T02:57:04;9.70;1.00
2611;DHT22;5612;51.134;17.058;2023-05-07T02:59:32;9.50;1.00
2611;DHT22;5612;51.134;17.058;2023-05-07T03:02:01;9.50;1.00
2611;DHT22;5612;51.134;17.058;2023-05-07T03:04:32;9.50;1.00
2611;DHT22;5612;51.134;17.058;2023-05-07T03:07:01;9.70;1.00
2611;DHT22;5612;51.134;17.058;2023-05-07T03:09:30;9.60;1.00
2611;DHT22;5612;51.134;17.058;2023-05-07T03:11:59;9.50;1.00
2611;DHT22;5612;51.134;17.058;2023-05-07T03:14:28;9.40;1.00
2611;DHT22;5612;51.134;17.058;2023-05-07T03:16:57;9.40;1.00
2611;DHT22;5612;51.134;17.058;2023-05-07T03:19:26;9.40;1.00
2611;DHT22;5612;51.134;17.058;2023-05-07T03:21:56;9.40;1.00
2611;DHT22;5612;51.134;17.058;2023-05-07T03:24:25;9.40;1.00
2611;DHT22;5612;51.134;17.058;2023-05-07T03:26:53;9.40;1.00
2611;DHT22;5612;51.134;17.058;2023-05-07T03:29:22;9.60;1.00
2611;DHT22;5612;51.134;17.058;2023-05-07T03:31:51;9.70;1.00
2611;DHT22;5612;51.134;17.058;2023-05-07T03:34:19;9.70;99.90
2611;DHT22;5612;51.134;17.058;2023-05-07T03:36:49;9.70;99.90
2611;DHT22;5612;51.134;17.058;2023-05-07T03:39:19;9.50;99.90
2611;DHT22;5612;51.134;17.058;2023-05-07T03:41:48;9.60;99.90
2611;DHT22;5612;51.134;17.058;2023-05-07T03:44:16;9.50;1.00
2611;DHT22;5612;51.134;17.058;2023-05-07T03:46:45;9.60;1.00
2611;DHT22;5612;51.134;17.058;2023-05-07T03:49:14;9.60;99.90
2611;DHT22;5612;51.134;17.058;2023-05-07T03:51:42;9.70;99.90
2611;DHT22;5612;51.134;17.058;2023-05-07T03:54:11;9.50;99.90
2611;DHT22;5612;51.134;17.058;2023-05-07T03:56:41;9.40;99.90
2611;DHT22;5612;51.134;17.058;2023-05-07T03:59:10;9.60;99.90
2611;DHT22;5612;51.134;17.058;2023-05-07T04:01:39;9.70;99.90
2611;DHT22;5612;51.134;17.058;2023-05-07T04:04:07;9.60;99.90
2611;DHT22;5612;51.134;17.058;2023-05-07T04:06:36;9.50;99.90
2611;DHT22;5612;51.134;17.058;2023-05-07T04:09:05;9.50;99.90
2611;DHT22;5612;51.134;17.058;2023-05-07T04:11:35;9.60;99.90
2611;DHT22;5612;51.134;17.058;2023-05-07T04:14:05;9.50;99.90
2611;DHT22;5612;51.134;17.058;2023-05-07T04:16:35;9.50;99.90
2611;DHT22;5612;51.134;17.058;2023-05-07T04:19:04;9.40;1.00
2611;DHT22;5612;51.134;17.058;2023-05-07T04:21:32;9.40;1.00
2611;DHT22;5612;51.134;17.058;2023-05-07T04:24:03;9.50;1.00
2611;DHT22;5612;51.134;17.058;2023-05-07T04:26:32;9.70;1.00
2611;DHT22;5612;51.134;17.058;2023-05-07T04:29:01;9.60;1.00
2611;DHT22;5612;51.134;17.058;2023-05-07T04:31:31;9.60;1.00
2611;DHT22;5612;51.134;17.058;2023-05-07T04:34:00;9.50;1.00
2611;DHT22;5612;51.134;17.058;2023-05-07T04:36:28;9.60;1.00
2611;DHT22;5612;51.134;17.058;2023-05-07T04:38:57;9.60;1.00
2611;DHT22;5612;51.134;17.058;2023-05-07T04:41:26;9.50;1.00
2611;DHT22;5612;51.134;17.058;2023-05-07T04:43:54;9.70;1.00
2611;DHT22;5612;51.134;17.058;2023-05-07T04:46:24;9.60;99.90
2611;DHT22;5612;51.134;17.058;2023-05-07T04:48:54;9.80;99.90
2611;DHT22;5612;51.134;17.058;2023-05-07T04:51:23;9.70;99.90
2611;DHT22;5612;51.134;17.058;2023-05-07T04:53:51;9.80;99.90
2611;DHT22;5612;51.134;17.058;2023-05-07T04:56:20;9.90;99.90
2611;DHT22;5612;51.134;17.058;2023-05-07T04:58:49;9.90;99.90
2611;DHT22;5612;51.134;17.058;2023-05-07T05:01:18;9.90;99.90
2611;DHT22;5612;51.134;17.058;2023-05-07T05:03:46;10.20;1.00
2611;DHT22;5612;51.134;17.058;2023-05-07T05:06:17;10.20;99.90
2611;DHT22;5612;51.134;17.058;2023-05-07T05:08:46;10.20;99.90
2611;DHT22;5612;51.134;17.058;2023-05-07T05:11:14;10.30;28.20
2611;DHT22;5612;51.134;17.058;2023-05-07T05:13:43;10.30;1.00
2611;DHT22;5612;51.134;17.058;2023-05-07T05:16:14;10.10;99.90
2611;DHT22;5612;51.134;17.058;2023-05-07T05:18:43;10.20;1.00
2611;DHT22;5612;51.134;17.058;2023-05-07T05:21:12;10.30;87.70
2611;DHT22;5612;51.134;17.058;2023-05-07T05:23:43;10.30;99.90
2611;DHT22;5612;51.134;17.058;2023-05-07T05:26:11;10.40;1.00
2611;DHT22;5612;51.134;17.058;2023-05-07T05:28:40;10.40;1.00
2611;DHT22;5612;51.134;17.058;2023-05-07T05:31:09;10.20;99.90
2611;DHT22;5612;51.134;17.058;2023-05-07T05:33:38;10.00;99.90
2611;DHT22;5612;51.134;17.058;2023-05-07T05:36:09;10.10;99.90
2611;DHT22;5612;51.134;17.058;2023-05-07T05:38:39;10.10;99.90
2611;DHT22;5612;51.134;17.058;2023-05-07T05:41:09;10.00;1.00
2611;DHT22;5612;51.134;17.058;2023-05-07T05:43:38;9.90;99.90
2611;DHT22;5612;51.134;17.058;2023-05-07T05:46:06;9.90;99.90
2611;DHT22;5612;51.134;17.058;2023-05-07T05:48:38;10.00;1.00
2611;DHT22;5612;51.134;17.058;2023-05-07T05:51:07;10.10;1.00
2611;DHT22;5612;51.134;17.058;2023-05-07T05:53:35;10.20;99.90
2611;DHT22;5612;51.134;17.058;2023-05-07T05:56:08;10.10;33.30
2611;DHT22;5612;51.134;17.058;2023-05-07T05:58:37;10.00;99.90
2611;DHT22;5612;51.134;17.058;2023-05-07T06:01:06;10.10;99.90
2611;DHT22;5612;51.134;17.058;2023-05-07T06:03:34;10.00;50.20
2611;DHT22;5612;51.134;17.058;2023-05-07T06:06:03;10.00;99.90
2611;DHT22;5612;51.134;17.058;2023-05-07T06:08:32;10.00;99.90
2611;DHT22;5612;51.134;17.058;2023-05-07T06:11:02;10.10;22.20
2611;DHT22;5612;51.134;17.058;2023-05-07T06:13:32;10.00;99.90
2611;DHT22;5612;51.134;17.058;2023-05-07T06:16:01;9.90;1.00
2611;DHT22;5612;51.134;17.058;2023-05-07T06:18:30;10.00;99.90
2611;DHT22;5612;51.134;17.058;2023-05-07T06:20:59;10.10;50.30
2611;DHT22;5612;51.134;17.058;2023-05-07T06:23:27;10.10;1.00
2611;DHT22;5612;51.134;17.058;2023-05-07T06:25:56;10.30;1.00
2611;DHT22;5612;51.134;17.058;2023-05-07T06:28:25;10.30;99.90
2611;DHT22;5612;51.134;17.058;2023-05-07T06:31:06;10.10;99.90
2611;DHT22;5612;51.134;17.058;2023-05-07T06:33:39;10.20;99.90
2611;DHT22;5612;51.134;17.058;2023-05-07T06:36:08;10.30;1.00
2611;DHT22;5612;51.134;17.058;2023-05-07T06:38:37;10.40;18.30
2611;DHT22;5612;51.134;17.058;2023-05-07T06:41:05;10.60;1.00
2611;DHT22;5612;51.134;17.058;2023-05-07T06:43:35;10.70;1.00
2611;DHT22;5612;51.134;17.058;2023-05-07T06:46:07;10.70;1.00
2611;DHT22;5612;51.134;17.058;2023-05-07T06:48:35;10.70;1.00
2611;DHT22;5612;51.134;17.058;2023-05-07T06:51:04;10.60;1.00
2611;DHT22;5612;51.134;17.058;2023-05-07T06:53:35;10.60;1.00
2611;DHT22;5612;51.134;17.058;2023-05-07T06:56:05;10.50;1.00
2611;DHT22;5612;51.134;17.058;2023-05-07T06:58:34;10.50;1.00
2611;DHT22;5612;51.134;17.058;2023-05-07T07:01:02;10.50;1.00
2611;DHT22;5612;51.134;17.058;2023-05-07T07:03:33;10.70;1.00
2611;DHT22;5612;51.134;17.058;2023-05-07T07:06:02;10.60;99.90
2611;DHT22;5612;51.134;17.058;2023-05-07T07:08:30;10.70;1.00
2611;DHT22;5612;51.134;17.058;2023-05-07T07:10:59;10.90;99.90
2611;DHT22;5612;51.134;17.058;2023-05-07T07:13:28;11.00;99.90
2611;DHT22;5612;51.134;17.058;2023-05-07T07:15:57;10.90;99.90
2611;DHT22;5612;51.134;17.058;2023-05-07T07:18:26;10.80;99.90
2611;DHT22;5612;51.134;17.058;2023-05-07T07:20:56;10.90;99.90
2611;DHT22;5612;51.134;17.058;2023-05-07T07:23:25;11.00;99.90
2611;DHT22;5612;51.134;17.058;2023-05-07T07:25:54;11.10;99.90
2611;DHT22;5612;51.134;17.058;2023-05-07T07:28:22;11.30;74.80
2611;DHT22;5612;51.134;17.058;2023-05-07T07:30:51;11.50;99.90
2611;DHT22;5612;51.134;17.058;2023-05-07T07:33:20;11.30;84.80
2611;DHT22;5612;51.134;17.058;2023-05-07T07:35:49;11.20;99.90
2611;DHT22;5612;51.134;17.058;2023-05-07T07:38:20;11.50;99.90
2611;DHT22;5612;51.134;17.058;2023-05-07T07:40:49;11.80;52.00
2611;DHT22;5612;51.134;17.058;2023-05-07T07:43:17;12.00;29.80
2611;DHT22;5612;51.134;17.058;2023-05-07T07:45:46;12.10;48.20
2611;DHT22;5612;51.134;17.058;2023-05-07T07:48:15;12.10;27.80
2611;DHT22;5612;51.134;17.058;2023-05-07T07:50:44;12.20;31.80
2611;DHT22;5612;51.134;17.058;2023-05-07T07:53:13;12.10;15.10
2611;DHT22;5612;51.134;17.058;2023-05-07T07:55:44;11.90;65.70
2611;DHT22;5612;51.134;17.058;2023-05-07T07:58:13;11.60;99.90
2611;DHT22;5612;51.134;17.058;2023-05-07T08:00:42;11.30;99.90
2611;DHT22;5612;51.134;17.058;2023-05-07T08:03:11;11.10;99.90
2611;DHT22;5612;51.134;17.058;2023-05-07T08:05:40;11.20;99.90
2611;DHT22;5612;51.134;17.058;2023-05-07T08:08:10;11.20;99.90
2611;DHT22;5612;51.134;17.058;2023-05-07T08:10:39;11.00;99.90
2611;DHT22;5612;51.134;17.058;2023-05-07T08:13:09;10.90;99.90
2611;DHT22;5612;51.134;17.058;2023-05-07T08:15:39;10.80;99.90
2611;DHT22;5612;51.134;17.058;2023-05-07T08:18:08;10.80;99.90
2611;DHT22;5612;51.134;17.058;2023-05-07T08:20:37;10.60;99.90
2611;DHT22;5612;51.134;17.058;2023-05-07T08:23:11;10.80;99.90
2611;DHT22;5612;51.134;17.058;2023-05-07T08:25:46;11.00;99.90
2611;DHT22;5612;51.134;17.058;2023-05-07T08:28:20;10.70;99.90
2611;DHT22;5612;51.134;17.058;2023-05-07T08:30:49;10.60;99.90
2611;DHT22;5612;51.134;17.058;2023-05-07T08:33:18;10.70;99.90
2611;DHT22;5612;51.134;17.058;2023-05-07T08:35:48;10.80;99.90
2611;DHT22;5612;51.134;17.058;2023-05-07T08:38:17;11.10;99.90
2611;DHT22;5612;51.134;17.058;2023-05-07T08:40:45;11.10;99.90
2611;DHT22;5612;51.134;17.058;2023-05-07T08:43:14;11.20;99.90
2611;DHT22;5612;51.134;17.058;2023-05-07T08:45:45;11.20;99.90
2611;DHT22;5612;51.134;17.058;2023-05-07T08:48:18;11.20;99.90
2611;DHT22;5612;51.134;17.058;2023-05-07T08:50:50;11.10;99.90
2611;DHT22;5612;51.134;17.058;2023-05-07T08:53:20;11.20;99.90
2611;DHT22;5612;51.134;17.058;2023-05-07T08:55:49;10.80;99.90
2611;DHT22;5612;51.134;17.058;2023-05-07T08:58:19;10.80;99.90
2611;DHT22;5612;51.134;17.058;2023-05-07T09:00:53;10.80;99.90
2611;DHT22;5612;51.134;17.058;2023-05-07T09:03:23;10.70;99.90
2611;DHT22;5612;51.134;17.058;2023-05-07T09:05:53;10.80;99.90
2611;DHT22;5612;51.134;17.058;2023-05-07T09:08:25;10.80;99.90
2611;DHT22;5612;51.134;17.058;2023-05-07T09:10:54;10.90;99.90
2611;DHT22;5612;51.134;17.058;2023-05-07T09:13:23;11.00;99.90
2611;DHT22;5612;51.134;17.058;2023-05-07T09:15:54;11.30;99.90
2611;DHT22;5612;51.134;17.058;2023-05-07T09:18:24;11.40;89.00
2611;DHT22;5612;51.134;17.058;2023-05-07T09:20:55;11.50;99.90
2611;DHT22;5612;51.134;17.058;2023-05-07T09:23:24;11.60;99.90
2611;DHT22;5612;51.134;17.058;2023-05-07T09:26:00;11.40;83.30
2611;DHT22;5612;51.134;17.058;2023-05-07T09:28:29;11.40;99.60
2611;DHT22;5612;51.134;17.058;2023-05-07T09:31:01;11.20;95.00
2611;DHT22;5612;51.134;17.058;2023-05-07T09:33:30;11.10;99.90
2611;DHT22;5612;51.134;17.058;2023-05-07T09:36:03;11.20;99.90
2611;DHT22;5612;51.134;17.058;2023-05-07T09:38:33;11.20;99.90
2611;DHT22;5612;51.134;17.058;2023-05-07T09:41:03;11.10;99.90
2611;DHT22;5612;51.134;17.058;2023-05-07T09:43:33;11.40;99.90
2611;DHT22;5612;51.134;17.058;2023-05-07T09:46:12;12.00;99.90
2611;DHT22;5612;51.134;17.058;2023-05-07T09:48:44;12.50;62.60
2611;DHT22;5612;51.134;17.058;2023-05-07T09:51:23;12.80;1.00
2611;DHT22;5612;51.134;17.058;2023-05-07T09:53:54;13.50;1.00
2611;DHT22;5612;51.134;17.058;2023-05-07T09:56:28;13.70;1.00
2611;DHT22;5612;51.134;17.058;2023-05-07T09:59:01;13.80;1.00
2611;DHT22;5612;51.134;17.058;2023-05-07T10:01:33;13.70;1.00
2611;DHT22;5612;51.134;17.058;2023-05-07T10:04:05;13.90;1.00
2611;DHT22;5612;51.134;17.058;2023-05-07T10:06:36;14.30;1.00
2611;DHT22;5612;51.134;17.058;2023-05-07T10:09:05;14.60;1.00
2611;DHT22;5612;51.134;17.058;2023-05-07T10:11:35;14.90;1.00
2611;DHT22;5612;51.134;17.058;2023-05-07T10:14:04;14.70;1.00
2611;DHT22;5612;51.134;17.058;2023-05-07T10:16:37;14.40;1.00
2611;DHT22;5612;51.134;17.058;2023-05-07T10:19:08;14.50;1.00
2611;DHT22;5612;51.134;17.058;2023-05-07T10:21:37;14.60;1.00
2611;DHT22;5612;51.134;17.058;2023-05-07T10:24:10;14.70;1.00
2611;DHT22;5612;51.134;17.058;2023-05-07T10:26:43;14.60;1.00
2611;DHT22;5612;51.134;17.058;2023-05-07T10:29:18;14.40;1.00
2611;DHT22;5612;51.134;17.058;2023-05-07T10:32:03;14.30;1.00
2611;DHT22;5612;51.134;17.058;2023-05-07T10:34:39;14.30;1.00
2611;DHT22;5612;51.134;17.058;2023-05-07T10:37:10;14.10;1.00
2611;DHT22;5612;51.134;17.058;2023-05-07T10:39:40;14.20;1.00
2611;DHT22;5612;51.134;17.058;2023-05-07T10:42:10;13.70;1.00
2611;DHT22;5612;51.134;17.058;2023-05-07T10:44:40;13.60;1.00
2611;DHT22;5612;51.134;17.058;2023-05-07T10:47:12;13.60;1.00
2611;DHT22;5612;51.134;17.058;2023-05-07T10:53:22;13.50;1.00
2611;DHT22;5612;51.134;17.058;2023-05-07T10:56:24;13.60;1.00
2611;DHT22;5612;51.134;17.058;2023-05-07T10:58:53;13.80;1.00
2611;DHT22;5612;51.134;17.058;2023-05-07T11:01:50;13.90;1.00
2611;DHT22;5612;51.134;17.058;2023-05-07T11:04:22;13.90;1.00
2611;DHT22;5612;51.134;17.058;2023-05-07T11:07:25;13.20;1.00
2611;DHT22;5612;51.134;17.058;2023-05-07T11:10:05;12.90;1.00
2611;DHT22;5612;51.134;17.058;2023-05-07T11:12:51;12.90;1.00
2611;DHT22;5612;51.134;17.058;2023-05-07T11:15:47;13.00;1.00
2611;DHT22;5612;51.134;17.058;2023-05-07T11:18:17;13.10;1.00
2611;DHT22;5612;51.134;17.058;2023-05-07T11:20:50;13.20;1.00
2611;DHT22;5612;51.134;17.058;2023-05-07T11:23:57;13.20;1.00
2611;DHT22;5612;51.134;17.058;2023-05-07T11:26:28;13.30;1.00
2611;DHT22;5612;51.134;17.058;2023-05-07T11:28:57;13.40;1.00
2611;DHT22;5612;51.134;17.058;2023-05-07T11:31:28;13.10;1.00
2611;DHT22;5612;51.134;17.058;2023-05-07T11:33:59;13.00;1.00
2611;DHT22;5612;51.134;17.058;2023-05-07T11:36:31;13.10;1.00
2611;DHT22;5612;51.134;17.058;2023-05-07T11:39:00;13.30;1.00
2611;DHT22;5612;51.134;17.058;2023-05-07T11:41:39;13.60;1.00
2611;DHT22;5612;51.134;17.058;2023-05-07T11:44:10;13.80;1.00
2611;DHT22;5612;51.134;17.058;2023-05-07T11:46:43;14.00;1.00
2611;DHT22;5612;51.134;17.058;2023-05-07T11:49:12;14.20;1.00
2611;DHT22;5612;51.134;17.058;2023-05-07T11:51:43;14.00;1.00
2611;DHT22;5612;51.134;17.058;2023-05-07T11:54:16;13.80;1.00
2611;DHT22;5612;51.134;17.058;2023-05-07T11:56:45;13.40;1.00
2611;DHT22;5612;51.134;17.058;2023-05-07T11:59:18;13.10;1.00
2611;DHT22;5612;51.134;17.058;2023-05-07T12:01:47;13.10;1.00
2611;DHT22;5612;51.134;17.058;2023-05-07T12:04:19;13.30;1.00
2611;DHT22;5612;51.134;17.058;2023-05-07T12:06:53;13.70;1.00
2611;DHT22;5612;51.134;17.058;2023-05-07T12:09:25;14.00;1.00
2611;DHT22;5612;51.134;17.058;2023-05-07T12:11:54;14.00;1.00
2611;DHT22;5612;51.134;17.058;2023-05-07T12:14:27;14.00;1.00
2611;DHT22;5612;51.134;17.058;2023-05-07T12:16:57;13.80;1.00
2611;DHT22;5612;51.134;17.058;2023-05-07T12:19:26;13.60;1.00
2611;DHT22;5612;51.134;17.058;2023-05-07T12:21:56;13.70;1.00
2611;DHT22;5612;51.134;17.058;2023-05-07T12:24:25;13.50;1.00
2611;DHT22;5612;51.134;17.058;2023-05-07T12:26:54;13.30;1.00
2611;DHT22;5612;51.134;17.058;2023-05-07T12:29:23;13.50;1.00
2611;DHT22;5612;51.134;17.058;2023-05-07T12:31:52;13.30;1.00
2611;DHT22;5612;51.134;17.058;2023-05-07T12:34:22;13.20;1.00
2611;DHT22;5612;51.134;17.058;2023-05-07T12:36:51;13.20;1.00
2611;DHT22;5612;51.134;17.058;2023-05-07T12:39:22;13.00;1.00
2611;DHT22;5612;51.134;17.058;2023-05-07T12:41:54;13.10;1.00
2611;DHT22;5612;51.134;17.058;2023-05-07T12:44:24;13.20;1.00
2611;DHT22;5612;51.134;17.058;2023-05-07T12:46:53;13.50;1.00
2611;DHT22;5612;51.134;17.058;2023-05-07T12:49:23;13.70;1.00
2611;DHT22;5612;51.134;17.058;2023-05-07T12:51:53;13.40;1.00
2611;DHT22;5612;51.134;17.058;2023-05-07T12:54:30;13.20;1.00
2611;DHT22;5612;51.134;17.058;2023-05-07T12:57:03;13.30;1.00
2611;DHT22;5612;51.134;17.058;2023-05-07T12:59:33;13.50;1.00
2611;DHT22;5612;51.134;17.058;2023-05-07T13:02:02;13.70;1.00
2611;DHT22;5612;51.134;17.058;2023-05-07T13:04:31;13.60;1.00
2611;DHT22;5612;51.134;17.058;2023-05-07T13:07:00;13.60;1.00
2611;DHT22;5612;51.134;17.058;2023-05-07T13:09:31;13.20;1.00
2611;DHT22;5612;51.134;17.058;2023-05-07T13:12:00;13.20;1.00
2611;DHT22;5612;51.134;17.058;2023-05-07T13:14:28;13.30;1.00
2611;DHT22;5612;51.134;17.058;2023-05-07T13:16:57;13.10;1.00
2611;DHT22;5612;51.134;17.058;2023-05-07T13:19:26;13.00;1.00
2611;DHT22;5612;51.134;17.058;2023-05-07T13:21:57;12.90;1.00
2611;DHT22;5612;51.134;17.058;2023-05-07T13:24:26;12.80;1.00
2611;DHT22;5612;51.134;17.058;2023-05-07T13:26:56;12.80;1.00
2611;DHT22;5612;51.134;17.058;2023-05-07T13:29:25;12.80;1.00
2611;DHT22;5612;51.134;17.058;2023-05-07T13:31:57;12.60;1.00
2611;DHT22;5612;51.134;17.058;2023-05-07T13:34:26;12.40;1.00
2611;DHT22;5612;51.134;17.058;2023-05-07T13:36:54;12.70;1.00
2611;DHT22;5612;51.134;17.058;2023-05-07T13:39:23;13.00;1.00
2611;DHT22;5612;51.134;17.058;2023-05-07T13:41:52;13.20;1.00
2611;DHT22;5612;51.134;17.058;2023-05-07T13:44:23;13.30;1.00
2611;DHT22;5612;51.134;17.058;2023-05-07T13:46:52;13.40;1.00
2611;DHT22;5612;51.134;17.058;2023-05-07T13:49:20;13.20;1.00
2611;DHT22;5612;51.134;17.058;2023-05-07T13:51:49;13.00;1.00
2611;DHT22;5612;51.134;17.058;2023-05-07T13:54:18;13.00;1.00
2611;DHT22;5612;51.134;17.058;2023-05-07T13:56:47;13.10;1.00
2611;DHT22;5612;51.134;17.058;2023-05-07T13:59:16;12.80;1.00
2611;DHT22;5612;51.134;17.058;2023-05-07T14:01:46;12.70;1.00
2611;DHT22;5612;51.134;17.058;2023-05-07T14:04:15;12.40;1.00
2611;DHT22;5612;51.134;17.058;2023-05-07T14:06:44;12.30;1.00
2611;DHT22;5612;51.134;17.058;2023-05-07T14:09:13;12.40;1.00
2611;DHT22;5612;51.134;17.058;2023-05-07T14:11:42;12.40;1.00
2611;DHT22;5612;51.134;17.058;2023-05-07T14:14:11;12.60;1.00
2611;DHT22;5612;51.134;17.058;2023-05-07T14:16:40;12.70;1.00
2611;DHT22;5612;51.134;17.058;2023-05-07T14:19:11;12.80;1.00
2611;DHT22;5612;51.134;17.058;2023-05-07T14:21:42;12.60;1.00
2611;DHT22;5612;51.134;17.058;2023-05-07T14:24:11;12.40;1.00
2611;DHT22;5612;51.134;17.058;2023-05-07T14:26:47;12.20;1.00
2611;DHT22;5612;51.134;17.058;2023-05-07T14:29:17;12.10;1.00
2611;DHT22;5612;51.134;17.058;2023-05-07T14:31:50;12.00;1.00
2611;DHT22;5612;51.134;17.058;2023-05-07T14:34:21;12.20;1.00
2611;DHT22;5612;51.134;17.058;2023-05-07T14:36:50;12.00;1.00
2611;DHT22;5612;51.134;17.058;2023-05-07T14:39:19;12.10;1.00
2611;DHT22;5612;51.134;17.058;2023-05-07T14:41:49;12.50;1.00
2611;DHT22;5612;51.134;17.058;2023-05-07T14:44:18;12.80;1.00
2611;DHT22;5612;51.134;17.058;2023-05-07T14:46:47;13.10;1.00
2611;DHT22;5612;51.134;17.058;2023-05-07T14:49:18;13.10;1.00
2611;DHT22;5612;51.134;17.058;2023-05-07T14:51:48;12.80;1.00
2611;DHT22;5612;51.134;17.058;2023-05-07T14:54:17;12.70;1.00
2611;DHT22;5612;51.134;17.058;2023-05-07T14:56:46;12.40;1.00
2611;DHT22;5612;51.134;17.058;2023-05-07T14:59:15;12.30;1.00
2611;DHT22;5612;51.134;17.058;2023-05-07T15:01:47;12.10;1.00
2611;DHT22;5612;51.134;17.058;2023-05-07T15:04:16;12.30;1.00
2611;DHT22;5612;51.134;17.058;2023-05-07T15:06:44;12.30;1.00
2611;DHT22;5612;51.134;17.058;2023-05-07T15:09:15;12.40;1.00
2611;DHT22;5612;51.134;17.058;2023-05-07T15:11:45;12.40;1.00
2611;DHT22;5612;51.134;17.058;2023-05-07T15:14:17;12.40;1.00
2611;DHT22;5612;51.134;17.058;2023-05-07T15:16:47;12.50;1.00
2611;DHT22;5612;51.134;17.058;2023-05-07T15:19:18;12.70;1.00
2611;DHT22;5612;51.134;17.058;2023-05-07T15:21:51;12.60;1.00
2611;DHT22;5612;51.134;17.058;2023-05-07T15:24:37;12.70;1.00
2611;DHT22;5612;51.134;17.058;2023-05-07T15:27:07;12.70;1.00
2611;DHT22;5612;51.134;17.058;2023-05-07T15:29:39;12.70;1.00
2611;DHT22;5612;51.134;17.058;2023-05-07T15:32:27;12.40;1.00
2611;DHT22;5612;51.134;17.058;2023-05-07T15:34:58;12.20;1.00
2611;DHT22;5612;51.134;17.058;2023-05-07T15:37:30;12.20;1.00
2611;DHT22;5612;51.134;17.058;2023-05-07T15:40:02;12.40;1.00
2611;DHT22;5612;51.134;17.058;2023-05-07T15:42:33;12.50;1.00
2611;DHT22;5612;51.134;17.058;2023-05-07T15:45:03;12.50;1.00
2611;DHT22;5612;51.134;17.058;2023-05-07T15:47:34;12.40;1.00
2611;DHT22;5612;51.134;17.058;2023-05-07T15:50:05;12.10;1.00
2611;DHT22;5612;51.134;17.058;2023-05-07T15:52:39;12.10;1.00
2611;DHT22;5612;51.134;17.058;2023-05-07T15:55:11;12.10;1.00
2611;DHT22;5612;51.134;17.058;2023-05-07T15:57:43;12.10;1.00
2611;DHT22;5612;51.134;17.058;2023-05-07T16:00:16;12.00;1.00
2611;DHT22;5612;51.134;17.058;2023-05-07T16:02:49;11.90;1.00
2611;DHT22;5612;51.134;17.058;2023-05-07T16:05:21;11.90;1.00
2611;DHT22;5612;51.134;17.058;2023-05-07T16:07:52;12.00;1.00
2611;DHT22;5612;51.134;17.058;2023-05-07T16:10:25;12.20;1.00
2611;DHT22;5612;51.134;17.058;2023-05-07T16:12:54;12.10;1.00
2611;DHT22;5612;51.134;17.058;2023-05-07T16:15:23;12.10;1.00
2611;DHT22;5612;51.134;17.058;2023-05-07T16:17:52;12.20;1.00
2611;DHT22;5612;51.134;17.058;2023-05-07T16:20:27;12.10;1.00
2611;DHT22;5612;51.134;17.058;2023-05-07T16:22:57;12.10;1.00